Flight Track Log - Related Links

Times and Time Zones

All times are in EDT time to prevent confusion due to time zone crossing. See the SWA377 flight status page for this flight to view local times or setup timezone preferences in your user account.


Time Position Orientation Groundspeed Altitude Reporting Facility
EDT Latitude Longitude Course Direction KTS MPH feet Rate Location/Type
Fri 07:54:10 PM 28.3333 -81.2667 156° South 232 267 2,800  Level Orlando TRACON
Fri 07:55:16 PM 28.3500 -81.1833 77° East 281 323 5,400 2,579 Climbing Orlando TRACON
Fri 07:56:11 PM 28.4167 -81.1833 360° North 291 335 8,000 2,713 Climbing Orlando TRACON
Fri 07:57:11 PM 28.5000 -81.2000 350° North 299 344 10,600 2,175 Climbing Orlando TRACON
Fri 07:58:51 PM 28.6611 -81.2553 343° North 376 433 13,800 2,075 Climbing Jacksonville Center
Fri 07:59:50 PM 28.7619 -81.2892 344° North 371 427 16,100 2,300 Climbing Jacksonville Center
Fri 08:00:51 PM 28.8644 -81.3183 346° North 378 435 18,400 1,983 Climbing Jacksonville Center
Fri 08:01:51 PM 28.9733 -81.3522 345° North 383 441 20,100 1,850 Climbing Jacksonville Center
Fri 08:02:51 PM 29.0844 -81.3861 345° North 395 455 22,100 1,700 Climbing Jacksonville Center
Fri 08:03:51 PM 29.1994 -81.4011 354° North 406 467 23,500 1,500 Climbing Jacksonville Center
Fri 08:04:51 PM 29.3247 -81.4086 357° North 422 486 25,100 1,550 Climbing Jacksonville Center
Fri 08:05:51 PM 29.4397 -81.4261 352° North 427 491 26,600 1,250 Climbing Jacksonville Center
Fri 08:06:51 PM 29.5650 -81.4386 355° North 432 497 27,600 1,150 Climbing Jacksonville Center
Fri 08:07:51 PM 29.6947 -81.4486 356° North 448 516 28,900 1,300 Climbing Jacksonville Center
Fri 08:08:51 PM 29.8222 -81.4608 355° North 453 521 30,200 1,311 Climbing Jacksonville Center
Fri 08:09:50 PM 29.9369 -81.4714 355° North 460 529 31,500 1,050 Climbing Jacksonville Center
Fri 08:10:51 PM 30.0664 -81.4644 North 460 529 32,300 1,091 Climbing Jacksonville Center
Fri 08:11:51 PM 30.1978 -81.4458 North 460 529 33,700 1,300 Climbing Jacksonville Center
Fri 08:12:51 PM 30.3228 -81.4319 North 460 529 34,900 655 Climbing Jacksonville Center
Fri 08:13:50 PM 30.4500 -81.4156 North 460 529 35,000 50 Climbing Jacksonville Center
Fri 08:14:51 PM 30.5750 -81.3992 North 460 529 35,000  Level Jacksonville Center
Fri 08:15:51 PM 30.7022 -81.3706 11° North 459 528 35,000  Level Jacksonville Center
Fri 08:16:50 PM 30.8225 -81.3128 22° Northeast 459 528 35,000  Level Jacksonville Center
Fri 08:17:51 PM 30.9428 -81.2553 22° Northeast 459 528 35,000  Level Jacksonville Center
Fri 08:18:51 PM 31.0653 -81.1972 22° Northeast 464 534 35,000  Level Jacksonville Center
Fri 08:19:51 PM 31.1897 -81.1417 21° North 474 545 35,000  Level Jacksonville Center
Fri 08:20:50 PM 31.3122 -81.0833 22° Northeast 474 545 35,000  Level Jacksonville Center
Fri 08:21:51 PM 31.4325 -81.0228 23° Northeast 474 545 35,000  Level Jacksonville Center
Fri 08:22:51 PM 31.5694 -80.9614 21° North 474 545 35,000  Level Jacksonville Center
Fri 08:23:51 PM 31.6936 -80.9025 22° Northeast 474 545 35,000  Level Jacksonville Center
Fri 08:24:51 PM 31.8200 -80.8411 22° Northeast 474 545 35,000  Level Jacksonville Center
Fri 08:25:51 PM 31.9422 -80.7847 21° North 474 545 35,000  Level Jacksonville Center
Fri 08:26:51 PM 32.0542 -80.7306 22° Northeast 474 545 35,000  Level Jacksonville Center
Fri 08:27:51 PM 32.1886 -80.6661 22° Northeast 468 539 35,000  Level Jacksonville Center
Fri 08:28:51 PM 32.3131 -80.6064 22° Northeast 482 555 35,000  Level Jacksonville Center
Fri 08:29:51 PM 32.4369 -80.5444 23° Northeast 476 548 35,000  Level Jacksonville Center
Fri 08:30:51 PM 32.5592 -80.4844 22° Northeast 474 545 35,000  Level Jacksonville Center
Fri 08:31:51 PM 32.6853 -80.4244 22° Northeast 474 545 35,000  Level Jacksonville Center
Fri 08:32:51 PM 32.8072 -80.3667 22° Northeast 469 540 35,000  Level Jacksonville Center
Fri 08:33:50 PM 32.9292 -80.3064 23° Northeast 469 540 35,000  Level Jacksonville Center
Fri 08:34:50 PM 33.0450 -80.2508 22° Northeast 488 562 35,000  Level Jacksonville Center
Fri 08:35:50 PM 33.1689 -80.1878 23° Northeast 488 562 35,000  Level Jacksonville Center
Fri 08:36:51 PM 33.3011 -80.1242 22° Northeast 488 562 35,000  Level Jacksonville Center
Fri 08:37:51 PM 33.4228 -80.0631 23° Northeast 488 562 35,000  Level Jacksonville Center
Fri 08:38:51 PM 33.5467 -80.0017 22° Northeast 488 562 35,000  Level Jacksonville Center
Fri 08:39:51 PM 33.6725 -79.9403 22° Northeast 481 554 35,000  Level Jacksonville Center
Fri 08:40:50 PM 33.7961 -79.8786 23° Northeast 481 554 35,000  Level Jacksonville Center
Fri 08:41:51 PM 33.9219 -79.8142 23° Northeast 481 554 35,000  Level Jacksonville Center
Fri 08:42:51 PM 34.0478 -79.7497 23° Northeast 486 559 35,000  Level Jacksonville Center
Fri 08:43:51 PM 34.1733 -79.6900 21° North 491 565 35,000  Level Jacksonville Center
Fri 08:45:23 PM 34.3742 -79.5850 23° Northeast 488 562 35,000  Level Washington Center
Fri 08:46:23 PM 34.4975 -79.5206 23° Northeast 488 562 35,000  Level Washington Center
Fri 08:47:25 PM 34.6206 -79.4533 24° Northeast 488 562 35,000  Level Washington Center
Fri 08:48:23 PM 34.7458 -79.3883 23° Northeast 488 562 35,000  Level Washington Center
Fri 08:49:24 PM 34.8689 -79.3233 23° Northeast 488 562 35,000  Level Washington Center
Fri 08:50:22 PM 34.9942 -79.2581 23° Northeast 488 562 35,000  Level Washington Center
Fri 08:51:23 PM 35.1192 -79.1903 24° Northeast 488 562 35,000  Level Washington Center
Fri 08:52:22 PM 35.2442 -79.1244 23° Northeast 488 562 35,000  Level Washington Center
Fri 08:53:25 PM 35.3694 -79.0586 23° Northeast 491 565 35,000  Level Washington Center
Fri 08:54:22 PM 35.4964 -78.9903 24° Northeast 491 565 35,000  Level Washington Center
Fri 08:55:22 PM 35.6086 -78.9311 23° Northeast 485 558 35,000  Level Washington Center
Fri 08:56:23 PM 35.7358 -78.8622 24° Northeast 485 558 35,000  Level Washington Center
Fri 08:57:24 PM 35.8608 -78.7956 23° Northeast 485 558 35,000  Level Washington Center
Fri 08:58:24 PM 35.9781 -78.6953 35° Northeast 492 566 35,000  Level Washington Center
Fri 08:59:23 PM 36.0933 -78.5917 36° Northeast 503 579 35,000  Level Washington Center
Fri 09:00:24 PM 36.2067 -78.4881 36° Northeast 503 579 35,000  Level Washington Center
Fri 09:01:24 PM 36.3217 -78.3839 36° Northeast 508 585 35,000  Level Washington Center
Fri 09:02:22 PM 36.4367 -78.2822 35° Northeast 508 585 35,000  Level Washington Center
Fri 09:03:23 PM 36.5497 -78.1750 37° Northeast 508 585 35,000  Level Washington Center
Fri 09:04:24 PM 36.6772 -78.0575 36° Northeast 508 585 35,000  Level Washington Center
Fri 09:05:24 PM 36.7900 -77.9494 37° Northeast 508 585 35,000  Level Washington Center
Fri 09:06:22 PM 36.9047 -77.8439 36° Northeast 508 585 35,000  Level Washington Center
Fri 09:07:22 PM 37.0194 -77.7406 36° Northeast 508 585 35,000  Level Washington Center
Fri 09:08:23 PM 37.1339 -77.6292 38° Northeast 508 585 35,000  Level Washington Center
Fri 09:09:24 PM 37.2506 -77.5228 36° Northeast 508 585 35,000  Level Washington Center
Fri 09:10:22 PM 37.3669 -77.4158 36° Northeast 508 585 35,000  Level Washington Center
Fri 09:11:24 PM 37.4811 -77.3061 37° Northeast 513 590 35,000  Level Washington Center
Fri 09:12:22 PM 37.5994 -77.1958 36° Northeast 513 590 35,000  Level Washington Center
Fri 09:13:22 PM 37.7156 -77.0828 38° Northeast 513 590 35,000  Level Washington Center
Fri 09:14:22 PM 37.8336 -76.9747 36° Northeast 513 590 35,000  Level Washington Center
Fri 09:15:22 PM 37.9517 -76.8769 33° Northeast 513 590 35,000  Level Washington Center
Fri 09:16:22 PM 38.0736 -76.7786 32° Northeast 513 590 35,000  Level Washington Center
Fri 09:17:23 PM 38.1911 -76.6775 34° Northeast 513 590 35,000  Level Washington Center
Fri 09:18:24 PM 38.2900 -76.5969 33° Northeast 513 590 35,000  Level Washington Center
Fri 09:19:22 PM 38.4328 -76.4797 33° Northeast 513 590 35,000  Level Washington Center
Fri 09:20:23 PM 38.5500 -76.3800 34° Northeast 513 590 35,000  Level Washington Center
Fri 09:21:24 PM 38.6694 -76.2778 34° Northeast 513 590 35,000  Level Washington Center
Fri 09:22:22 PM 38.7931 -76.1750 33° Northeast 513 590 35,000  Level Washington Center
Fri 09:23:23 PM 38.9122 -76.0744 33° Northeast 513 590 35,000  Level Washington Center
Fri 09:24:23 PM 39.0336 -75.9764 32° Northeast 513 590 35,000  Level Washington Center
Fri 09:25:22 PM 39.1547 -75.8700 34° Northeast 513 590 35,000  Level Washington Center
Fri 09:26:23 PM 39.2739 -75.7686 33° Northeast 513 590 35,000  Level Washington Center
Fri 09:27:22 PM 39.3969 -75.6667 33° Northeast 513 590 35,000  Level Washington Center
Fri 09:28:54 PM 39.5786 -75.5061 34° Northeast 531 611 35,000  Level New York Center
Fri 09:29:54 PM 39.6844 -75.4133 34° Northeast 531 611 35,000  Level New York Center
Fri 09:30:54 PM 39.8094 -75.3081 33° Northeast 526 605 35,000  Level New York Center
Fri 09:31:54 PM 39.9303 -75.2022 34° Northeast 526 605 35,000  Level New York Center
Fri 09:32:54 PM 40.0511 -75.0906 35° Northeast 526 605 35,000  Level New York Center
Fri 09:33:54 PM 40.1697 -74.9839 34° Northeast 526 605 35,000  Level New York Center
Fri 09:34:54 PM 40.2958 -74.8883 30° Northeast 526 605 35,000  Level New York Center
Fri 09:35:54 PM 40.4269 -74.8361 17° North 499 574 35,000  Level New York Center
Fri 09:36:54 PM 40.5583 -74.7756 19° North 493 567 35,000  Level New York Center
Fri 09:37:54 PM 40.6892 -74.7258 16° North 493 567 35,000 -400 Level New York Center
Fri 09:38:54 PM 40.8203 -74.6619 20° North 493 567 34,200 -850 Descending New York Center
Fri 09:39:54 PM 40.9514 -74.6064 18° North 493 567 33,300 -1,000 Descending New York Center
Fri 09:40:54 PM 41.0803 -74.5503 18° North 493 567 32,200 -935 Descending New York Center
Fri 09:42:28 PM 41.2839 -74.4650 17° North 497 572 30,900 -474 Descending Boston Center
Fri 09:43:26 PM 41.4142 -74.4108 17° North 497 572 31,000 50 Climbing Boston Center
Fri 09:44:28 PM 41.5464 -74.3483 19° North 502 578 31,000 -344 Level Boston Center
Fri 09:45:28 PM 41.6786 -74.2914 18° North 502 578 30,300 -915 Descending Boston Center
Fri 09:46:26 PM 41.8214 -74.2286 18° North 491 565 29,200 -1,068 Descending Boston Center
Fri 09:47:26 PM 41.9494 -74.1736 18° North 486 559 28,200 -934 Descending Boston Center
Fri 09:48:28 PM 42.0617 -74.0619 36° Northeast 491 565 27,300 -836 Descending Boston Center
Fri 09:49:28 PM 42.1328 -73.8875 61° Northeast 487 560 26,500 -915 Descending Boston Center
Fri 09:50:26 PM 42.2056 -73.7125 61° Northeast 509 586 25,500 -756 Descending Boston Center
Fri 09:51:27 PM 42.2700 -73.5511 62° Northeast 529 609 25,000 -634 Descending Boston Center
Fri 09:52:29 PM 42.3508 -73.3700 59° Northeast 529 609 24,200 -958 Descending Boston Center
Fri 09:53:26 PM 42.4186 -73.2050 61° Northeast 529 609 23,100 -1,059 Descending Boston Center
Fri 09:54:28 PM 42.4883 -73.0397 60° Northeast 521 600 22,100 -984 Descending Boston Center
Fri 09:55:28 PM 42.5558 -72.8714 61° Northeast 509 586 21,100 -1,300 Descending Boston Center
Fri 09:56:28 PM 42.6231 -72.7081 61° Northeast 501 577 19,500 -1,983 Descending Boston Center
Fri 09:57:26 PM 42.6858 -72.5644 59° Northeast 477 549 17,200 -2,380 Descending Boston Center
Fri 09:58:29 PM 42.7442 -72.4147 62° Northeast 453 521 14,700 -2,600 Descending Boston Center
Fri 09:59:26 PM 42.7983 -72.2561 65° Northeast 435 501 12,000 -2,186 Descending Boston Center
Fri 10:00:27 PM 42.8083 -72.1089 85° East 395 455 10,400 -1,426 Descending Boston Center
Fri 10:01:28 PM 42.8183 -71.9817 84° East 361 415 9,100 -1,750 Descending Boston Center
Fri 10:02:27 PM 42.8158 -71.8628 92° East 326 375 6,900 -2,100 Descending Boston Center
Fri 10:03:28 PM 42.8047 -71.7467 97° East 308 354 4,900 -1,765 Descending Boston Center
Fri 10:04:26 PM 42.8353 -71.6472 67° East 279 321 3,400 -1,008 Descending Boston Center
Fri 10:05:27 PM 42.8536 -71.5733 71° East 233 268 2,900 -793 Descending Boston Center
Fri 10:06:27 PM 42.8739 -71.5194 63° Northeast 171 197 1,800 -942 Descending Boston Center
Fri 10:07:28 PM 42.9050 -71.4792 43° Northeast 150 173 1,000 -706 Descending Boston Center
Fri 10:08:26 PM 42.9358 -71.4419 41° Northeast 145 167 400 9,153 Descending Boston Center
Fri 10:09:26 PM 42.9667 -71.4044 42° Northeast 145 167 19,000 9,148 Climbing Boston Center
Fri 10:10:28 PM 42.9978 -71.3697 39° Northeast 145 167 19,000  Level Boston Center
Fri 10:11:26 PM 43.0286 -71.3325 41° Northeast 145 167 19,000  Level Boston Center
Fri 10:12:26 PM 43.0533 -71.3036 40° Northeast 145 167 19,000  Level Boston Center
Fri 10:14:28 PM 43.0533 -71.3036 346° North 145 167 19,000  Level Boston Center

Login

Don't have an account? Register now (free) for customized features, flight alerts, and more!